Accueil
METAR-TAF:

METAR-TAF

Aéroports :

Aéroport Albert-Picardie

Albert, France

latitude: 49-58-21N, longitude: 002-41-29E, altitude: 111 m

Observation

Le bulletin a été fait il y a 16 minutes, à 17:00 UTC
Vent 8 kt de sud/sud-ouest
Température 8°C
Humidité 87%
Pression 1020 hPa
Visibilité 10 km ou plus
Ciel couvert à une hauteur de 1500 ft

METAR: LFAQ 281700Z AUTO 20008KT 9999 OVC015 08/06 Q1020 BECMG OVC012

Heure: 18:16 (17:16 UTC)

Prévision

Le bulletin a été fait il y a 3 heures et 16 minutes, à 14:00 UTC
Prévision valable du 28 à 15 UTC au 28 à 24 UTC
Vent 13 kt de sud/sud-ouest
Visibilité 10 km ou plus
Ciel couvert à une hauteur de 1200 ft
Temporairement
du 28 à 20 UTC au 28 à 24 UTC
Visibilité: 2500 m
Nuages fragmentés à une hauteur de 800 ft
pluie, bruine,

TAF: LFAQ 281400Z 2815/2824 20013KT 9999 OVC012 TEMPO 2820/2824 2500 RADZ BKN008

Observations et prévisions météorologiques de plus de 4000 aéroports (messages METAR et TAF).

Les stations disponibles sont représentées par des disques jaunes et rouges sur la carte.

Passer la souris dessus pour voir le nom de la station.

Cliquer dessus pour voir les observations et prévisions météorologiques.

Pour changer de carte: cliquez sur les boutons verts avec une croix noire pour zoomer, sur le bouton vert avec un tiret pour effectuer un zoom arrière, ou sur les flèches vertes pour les cartes adjacentes.


METAR-TAF: